sensor_id;sensor_type;location;lat;lon;timestamp;P1;durP1;ratioP1;P2;durP2;ratioP2
10313;SDS011;5202;49.138;10.090;2022-07-23T00:00:34;6.82;;;6.10;;
10313;SDS011;5202;49.138;10.090;2022-07-23T00:03:05;6.15;;;5.55;;
10313;SDS011;5202;49.138;10.090;2022-07-23T00:05:37;6.57;;;5.88;;
10313;SDS011;5202;49.138;10.090;2022-07-23T00:08:05;6.10;;;5.60;;
10313;SDS011;5202;49.138;10.090;2022-07-23T00:10:39;5.72;;;5.15;;
10313;SDS011;5202;49.138;10.090;2022-07-23T00:13:08;8.02;;;6.10;;
10313;SDS011;5202;49.138;10.090;2022-07-23T00:15:36;10.93;;;6.10;;
10313;SDS011;5202;49.138;10.090;2022-07-23T00:18:05;7.10;;;5.57;;
10313;SDS011;5202;49.138;10.090;2022-07-23T00:20:33;7.53;;;5.57;;
10313;SDS011;5202;49.138;10.090;2022-07-23T00:23:03;7.90;;;6.05;;
10313;SDS011;5202;49.138;10.090;2022-07-23T00:25:31;8.02;;;6.18;;
10313;SDS011;5202;49.138;10.090;2022-07-23T00:28:00;6.20;;;5.60;;
10313;SDS011;5202;49.138;10.090;2022-07-23T00:30:29;6.38;;;5.78;;
10313;SDS011;5202;49.138;10.090;2022-07-23T00:32:59;6.50;;;5.90;;
10313;SDS011;5202;49.138;10.090;2022-07-23T00:35:31;6.90;;;5.90;;
10313;SDS011;5202;49.138;10.090;2022-07-23T00:38:01;6.20;;;5.60;;
10313;SDS011;5202;49.138;10.090;2022-07-23T00:40:32;9.43;;;5.63;;
10313;SDS011;5202;49.138;10.090;2022-07-23T00:43:00;6.85;;;6.15;;
10313;SDS011;5202;49.138;10.090;2022-07-23T00:45:30;10.50;;;6.10;;
10313;SDS011;5202;49.138;10.090;2022-07-23T00:47:59;5.63;;;5.13;;
10313;SDS011;5202;49.138;10.090;2022-07-23T00:50:28;8.18;;;4.90;;
10313;SDS011;5202;49.138;10.090;2022-07-23T00:52:56;6.97;;;5.88;;
10313;SDS011;5202;49.138;10.090;2022-07-23T00:55:26;7.78;;;5.10;;
10313;SDS011;5202;49.138;10.090;2022-07-23T00:57:55;5.07;;;4.57;;
10313;SDS011;5202;49.138;10.090;2022-07-23T01:00:24;6.22;;;4.93;;
10313;SDS011;5202;49.138;10.090;2022-07-23T01:02:53;5.18;;;4.65;;
10313;SDS011;5202;49.138;10.090;2022-07-23T01:05:21;4.72;;;4.15;;
10313;SDS011;5202;49.138;10.090;2022-07-23T01:07:50;5.63;;;4.20;;
10313;SDS011;5202;49.138;10.090;2022-07-23T01:10:22;5.20;;;3.95;;
10313;SDS011;5202;49.138;10.090;2022-07-23T01:13:03;8.23;;;4.32;;
10313;SDS011;5202;49.138;10.090;2022-07-23T01:15:33;4.60;;;3.80;;
10313;SDS011;5202;49.138;10.090;2022-07-23T01:18:04;4.35;;;3.80;;
10313;SDS011;5202;49.138;10.090;2022-07-23T01:20:35;4.55;;;4.13;;
10313;SDS011;5202;49.138;10.090;2022-07-23T01:23:06;4.90;;;4.40;;
10313;SDS011;5202;49.138;10.090;2022-07-23T01:25:36;4.75;;;4.13;;
10313;SDS011;5202;49.138;10.090;2022-07-23T01:28:05;5.93;;;4.32;;
10313;SDS011;5202;49.138;10.090;2022-07-23T01:30:33;5.00;;;3.83;;
10313;SDS011;5202;49.138;10.090;2022-07-23T01:33:05;4.28;;;3.88;;
10313;SDS011;5202;49.138;10.090;2022-07-23T01:35:35;5.53;;;4.05;;
10313;SDS011;5202;49.138;10.090;2022-07-23T01:38:07;4.70;;;3.85;;
10313;SDS011;5202;49.138;10.090;2022-07-23T01:40:38;5.40;;;4.00;;
10313;SDS011;5202;49.138;10.090;2022-07-23T01:43:08;4.50;;;4.00;;
10313;SDS011;5202;49.138;10.090;2022-07-23T01:45:38;5.47;;;4.18;;
10313;SDS011;5202;49.138;10.090;2022-07-23T01:48:06;5.78;;;4.20;;
10313;SDS011;5202;49.138;10.090;2022-07-23T01:50:40;5.07;;;4.45;;
10313;SDS011;5202;49.138;10.090;2022-07-23T01:53:18;5.50;;;4.40;;
10313;SDS011;5202;49.138;10.090;2022-07-23T01:55:47;7.88;;;5.20;;
10313;SDS011;5202;49.138;10.090;2022-07-23T01:58:16;4.75;;;3.83;;
10313;SDS011;5202;49.138;10.090;2022-07-23T02:00:44;4.60;;;3.70;;
10313;SDS011;5202;49.138;10.090;2022-07-23T02:03:12;6.63;;;4.03;;
10313;SDS011;5202;49.138;10.090;2022-07-23T02:05:42;4.82;;;4.03;;
10313;SDS011;5202;49.138;10.090;2022-07-23T02:08:10;4.60;;;4.18;;
10313;SDS011;5202;49.138;10.090;2022-07-23T02:10:40;3.92;;;3.53;;
10313;SDS011;5202;49.138;10.090;2022-07-23T02:13:08;3.80;;;3.50;;
10313;SDS011;5202;49.138;10.090;2022-07-23T02:15:44;4.20;;;3.80;;
10313;SDS011;5202;49.138;10.090;2022-07-23T02:18:12;4.50;;;3.72;;
10313;SDS011;5202;49.138;10.090;2022-07-23T02:20:41;5.88;;;3.95;;
10313;SDS011;5202;49.138;10.090;2022-07-23T02:23:11;4.35;;;3.38;;
10313;SDS011;5202;49.138;10.090;2022-07-23T02:25:41;4.53;;;3.70;;
10313;SDS011;5202;49.138;10.090;2022-07-23T02:28:09;4.15;;;3.47;;
10313;SDS011;5202;49.138;10.090;2022-07-23T02:30:40;3.97;;;3.58;;
10313;SDS011;5202;49.138;10.090;2022-07-23T02:33:09;3.85;;;3.47;;
10313;SDS011;5202;49.138;10.090;2022-07-23T02:35:39;4.18;;;3.75;;
10313;SDS011;5202;49.138;10.090;2022-07-23T02:38:08;3.97;;;3.60;;
10313;SDS011;5202;49.138;10.090;2022-07-23T02:40:36;4.05;;;3.42;;
10313;SDS011;5202;49.138;10.090;2022-07-23T02:43:07;4.47;;;3.78;;
10313;SDS011;5202;49.138;10.090;2022-07-23T02:45:35;3.80;;;3.50;;
10313;SDS011;5202;49.138;10.090;2022-07-23T02:48:04;3.97;;;3.58;;
10313;SDS011;5202;49.138;10.090;2022-07-23T02:50:32;4.40;;;3.60;;
10313;SDS011;5202;49.138;10.090;2022-07-23T02:53:02;4.28;;;3.88;;
10313;SDS011;5202;49.138;10.090;2022-07-23T02:55:30;3.72;;;3.33;;
10313;SDS011;5202;49.138;10.090;2022-07-23T02:58:00;4.72;;;3.70;;
10313;SDS011;5202;49.138;10.090;2022-07-23T03:00:30;4.75;;;4.25;;
10313;SDS011;5202;49.138;10.090;2022-07-23T03:02:59;4.70;;;3.90;;
10313;SDS011;5202;49.138;10.090;2022-07-23T03:05:27;4.93;;;4.22;;
10313;SDS011;5202;49.138;10.090;2022-07-23T03:07:56;4.32;;;3.83;;
10313;SDS011;5202;49.138;10.090;2022-07-23T03:10:24;3.65;;;3.35;;
10313;SDS011;5202;49.138;10.090;2022-07-23T03:12:53;4.32;;;3.72;;
10313;SDS011;5202;49.138;10.090;2022-07-23T03:15:21;4.22;;;3.80;;
10313;SDS011;5202;49.138;10.090;2022-07-23T03:17:51;4.30;;;3.90;;
10313;SDS011;5202;49.138;10.090;2022-07-23T03:20:19;3.78;;;3.47;;
10313;SDS011;5202;49.138;10.090;2022-07-23T03:22:47;4.22;;;3.78;;
10313;SDS011;5202;49.138;10.090;2022-07-23T03:25:16;4.35;;;3.95;;
10313;SDS011;5202;49.138;10.090;2022-07-23T03:27:46;4.22;;;3.83;;
10313;SDS011;5202;49.138;10.090;2022-07-23T03:30:15;3.50;;;3.20;;
10313;SDS011;5202;49.138;10.090;2022-07-23T03:32:43;4.75;;;3.60;;
10313;SDS011;5202;49.138;10.090;2022-07-23T03:35:13;3.85;;;3.47;;
10313;SDS011;5202;49.138;10.090;2022-07-23T03:37:50;6.07;;;4.30;;
10313;SDS011;5202;49.138;10.090;2022-07-23T03:40:18;4.55;;;3.88;;
10313;SDS011;5202;49.138;10.090;2022-07-23T03:42:47;4.93;;;4.47;;
10313;SDS011;5202;49.138;10.090;2022-07-23T03:45:15;5.57;;;3.90;;
10313;SDS011;5202;49.138;10.090;2022-07-23T03:47:43;4.15;;;3.75;;
10313;SDS011;5202;49.138;10.090;2022-07-23T03:50:15;4.32;;;3.67;;
10313;SDS011;5202;49.138;10.090;2022-07-23T03:52:43;3.63;;;3.33;;
10313;SDS011;5202;49.138;10.090;2022-07-23T03:55:11;4.35;;;3.95;;
10313;SDS011;5202;49.138;10.090;2022-07-23T03:57:40;4.55;;;3.83;;
10313;SDS011;5202;49.138;10.090;2022-07-23T04:00:09;4.28;;;3.78;;
10313;SDS011;5202;49.138;10.090;2022-07-23T04:02:40;6.07;;;3.83;;
10313;SDS011;5202;49.138;10.090;2022-07-23T04:05:15;4.95;;;4.10;;
10313;SDS011;5202;49.138;10.090;2022-07-23T04:07:48;4.50;;;3.95;;
10313;SDS011;5202;49.138;10.090;2022-07-23T04:10:17;4.95;;;4.30;;
10313;SDS011;5202;49.138;10.090;2022-07-23T04:12:46;4.22;;;3.78;;
10313;SDS011;5202;49.138;10.090;2022-07-23T04:15:14;4.38;;;3.97;;
10313;SDS011;5202;49.138;10.090;2022-07-23T04:17:43;4.78;;;4.00;;
10313;SDS011;5202;49.138;10.090;2022-07-23T04:20:17;4.28;;;3.72;;
10313;SDS011;5202;49.138;10.090;2022-07-23T04:22:53;4.38;;;3.95;;
10313;SDS011;5202;49.138;10.090;2022-07-23T04:25:22;4.47;;;3.95;;
10313;SDS011;5202;49.138;10.090;2022-07-23T04:27:51;6.50;;;3.78;;
10313;SDS011;5202;49.138;10.090;2022-07-23T04:30:19;6.22;;;3.75;;
10313;SDS011;5202;49.138;10.090;2022-07-23T04:32:48;5.50;;;3.80;;
10313;SDS011;5202;49.138;10.090;2022-07-23T04:35:24;6.55;;;4.20;;
10313;SDS011;5202;49.138;10.090;2022-07-23T04:37:58;6.35;;;4.10;;
10313;SDS011;5202;49.138;10.090;2022-07-23T04:40:27;4.53;;;4.13;;
10313;SDS011;5202;49.138;10.090;2022-07-23T04:42:57;5.28;;;4.78;;
10313;SDS011;5202;49.138;10.090;2022-07-23T04:45:25;4.75;;;3.67;;
10313;SDS011;5202;49.138;10.090;2022-07-23T04:47:56;4.75;;;4.22;;
10313;SDS011;5202;49.138;10.090;2022-07-23T04:50:25;4.05;;;3.60;;
10313;SDS011;5202;49.138;10.090;2022-07-23T04:52:57;4.32;;;3.70;;
10313;SDS011;5202;49.138;10.090;2022-07-23T04:55:26;5.25;;;4.15;;
10313;SDS011;5202;49.138;10.090;2022-07-23T04:57:55;5.47;;;3.83;;
10313;SDS011;5202;49.138;10.090;2022-07-23T05:00:23;5.10;;;4.22;;
10313;SDS011;5202;49.138;10.090;2022-07-23T05:02:52;7.95;;;4.03;;
10313;SDS011;5202;49.138;10.090;2022-07-23T05:05:20;4.60;;;3.90;;
10313;SDS011;5202;49.138;10.090;2022-07-23T05:07:52;4.93;;;4.13;;
10313;SDS011;5202;49.138;10.090;2022-07-23T05:10:20;4.20;;;3.80;;
10313;SDS011;5202;49.138;10.090;2022-07-23T05:12:52;4.55;;;4.13;;
10313;SDS011;5202;49.138;10.090;2022-07-23T05:15:20;5.40;;;4.20;;
10313;SDS011;5202;49.138;10.090;2022-07-23T05:17:49;4.40;;;4.00;;
10313;SDS011;5202;49.138;10.090;2022-07-23T05:20:18;5.35;;;4.28;;
10313;SDS011;5202;49.138;10.090;2022-07-23T05:22:46;4.97;;;4.47;;
10313;SDS011;5202;49.138;10.090;2022-07-23T05:25:17;4.05;;;3.65;;
10313;SDS011;5202;49.138;10.090;2022-07-23T05:27:46;5.43;;;4.03;;
10313;SDS011;5202;49.138;10.090;2022-07-23T05:30:14;4.80;;;4.30;;
10313;SDS011;5202;49.138;10.090;2022-07-23T05:32:45;4.45;;;3.72;;
10313;SDS011;5202;49.138;10.090;2022-07-23T05:35:16;4.85;;;4.22;;
10313;SDS011;5202;49.138;10.090;2022-07-23T05:37:57;6.93;;;3.92;;
10313;SDS011;5202;49.138;10.090;2022-07-23T05:40:28;4.35;;;3.95;;
10313;SDS011;5202;49.138;10.090;2022-07-23T05:42:56;5.50;;;4.40;;
10313;SDS011;5202;49.138;10.090;2022-07-23T05:45:25;6.22;;;4.28;;
10313;SDS011;5202;49.138;10.090;2022-07-23T05:47:53;7.68;;;4.63;;
10313;SDS011;5202;49.138;10.090;2022-07-23T05:50:31;6.25;;;4.20;;
10313;SDS011;5202;49.138;10.090;2022-07-23T05:53:07;4.72;;;3.70;;
10313;SDS011;5202;49.138;10.090;2022-07-23T05:55:51;5.30;;;4.57;;
10313;SDS011;5202;49.138;10.090;2022-07-23T05:58:20;5.70;;;4.57;;
10313;SDS011;5202;49.138;10.090;2022-07-23T06:00:48;5.10;;;3.90;;
10313;SDS011;5202;49.138;10.090;2022-07-23T06:03:17;4.75;;;4.05;;
10313;SDS011;5202;49.138;10.090;2022-07-23T06:05:51;4.95;;;4.18;;
10313;SDS011;5202;49.138;10.090;2022-07-23T06:08:20;4.82;;;4.32;;
10313;SDS011;5202;49.138;10.090;2022-07-23T06:10:48;6.63;;;4.18;;
10313;SDS011;5202;49.138;10.090;2022-07-23T06:13:18;5.38;;;4.88;;
10313;SDS011;5202;49.138;10.090;2022-07-23T06:15:46;6.10;;;4.22;;
10313;SDS011;5202;49.138;10.090;2022-07-23T06:18:15;5.65;;;4.35;;
10313;SDS011;5202;49.138;10.090;2022-07-23T06:20:43;4.72;;;4.25;;
10313;SDS011;5202;49.138;10.090;2022-07-23T06:23:16;5.35;;;4.60;;
10313;SDS011;5202;49.138;10.090;2022-07-23T06:25:44;7.15;;;4.53;;
10313;SDS011;5202;49.138;10.090;2022-07-23T06:28:12;6.22;;;4.32;;
10313;SDS011;5202;49.138;10.090;2022-07-23T06:30:42;6.43;;;4.80;;
10313;SDS011;5202;49.138;10.090;2022-07-23T06:33:11;5.45;;;4.78;;
10313;SDS011;5202;49.138;10.090;2022-07-23T06:35:39;5.47;;;4.50;;
10313;SDS011;5202;49.138;10.090;2022-07-23T06:38:08;5.93;;;4.85;;
10313;SDS011;5202;49.138;10.090;2022-07-23T06:40:36;4.40;;;4.00;;
10313;SDS011;5202;49.138;10.090;2022-07-23T06:43:04;5.18;;;4.65;;
10313;SDS011;5202;49.138;10.090;2022-07-23T06:45:36;5.68;;;4.65;;
10313;SDS011;5202;49.138;10.090;2022-07-23T06:48:06;5.25;;;4.75;;
10313;SDS011;5202;49.138;10.090;2022-07-23T06:50:34;6.85;;;5.32;;
10313;SDS011;5202;49.138;10.090;2022-07-23T06:53:02;5.07;;;4.35;;
10313;SDS011;5202;49.138;10.090;2022-07-23T06:55:31;6.35;;;5.15;;
10313;SDS011;5202;49.138;10.090;2022-07-23T06:58:01;6.22;;;5.00;;
10313;SDS011;5202;49.138;10.090;2022-07-23T07:00:30;9.05;;;5.60;;
10313;SDS011;5202;49.138;10.090;2022-07-23T07:02:58;7.60;;;5.22;;
10313;SDS011;5202;49.138;10.090;2022-07-23T07:05:28;6.18;;;5.57;;
10313;SDS011;5202;49.138;10.090;2022-07-23T07:07:56;7.55;;;5.32;;
10313;SDS011;5202;49.138;10.090;2022-07-23T07:10:25;7.78;;;6.18;;
10313;SDS011;5202;49.138;10.090;2022-07-23T07:12:54;8.80;;;5.70;;
10313;SDS011;5202;49.138;10.090;2022-07-23T07:15:22;8.02;;;6.05;;
10313;SDS011;5202;49.138;10.090;2022-07-23T07:17:51;6.47;;;5.50;;
10313;SDS011;5202;49.138;10.090;2022-07-23T07:20:19;6.13;;;5.53;;
10313;SDS011;5202;49.138;10.090;2022-07-23T07:22:49;8.55;;;6.32;;
10313;SDS011;5202;49.138;10.090;2022-07-23T07:25:17;6.82;;;5.55;;
10313;SDS011;5202;49.138;10.090;2022-07-23T07:27:46;8.02;;;5.07;;
10313;SDS011;5202;49.138;10.090;2022-07-23T07:30:14;6.85;;;5.25;;
10313;SDS011;5202;49.138;10.090;2022-07-23T07:32:43;8.57;;;5.80;;
10313;SDS011;5202;49.138;10.090;2022-07-23T07:35:26;7.63;;;5.85;;
10313;SDS011;5202;49.138;10.090;2022-07-23T07:37:56;7.35;;;5.47;;
10313;SDS011;5202;49.138;10.090;2022-07-23T07:40:24;11.40;;;6.10;;
10313;SDS011;5202;49.138;10.090;2022-07-23T07:42:59;7.72;;;5.88;;
10313;SDS011;5202;49.138;10.090;2022-07-23T07:45:29;7.88;;;6.07;;
10313;SDS011;5202;49.138;10.090;2022-07-23T07:47:58;5.93;;;5.22;;
10313;SDS011;5202;49.138;10.090;2022-07-23T07:50:26;7.25;;;5.40;;
10313;SDS011;5202;49.138;10.090;2022-07-23T07:52:57;8.45;;;5.53;;
10313;SDS011;5202;49.138;10.090;2022-07-23T07:55:27;6.63;;;5.68;;
10313;SDS011;5202;49.138;10.090;2022-07-23T07:57:55;6.68;;;5.95;;
10313;SDS011;5202;49.138;10.090;2022-07-23T08:00:23;5.82;;;5.20;;
10313;SDS011;5202;49.138;10.090;2022-07-23T08:02:53;6.30;;;5.47;;
10313;SDS011;5202;49.138;10.090;2022-07-23T08:05:58;6.30;;;5.40;;
10313;SDS011;5202;49.138;10.090;2022-07-23T08:08:28;7.07;;;6.38;;
10313;SDS011;5202;49.138;10.090;2022-07-23T08:10:56;8.45;;;6.40;;
10313;SDS011;5202;49.138;10.090;2022-07-23T08:13:24;7.20;;;6.50;;
10313;SDS011;5202;49.138;10.090;2022-07-23T08:15:53;9.30;;;6.93;;
10313;SDS011;5202;49.138;10.090;2022-07-23T08:18:21;8.05;;;6.13;;
10313;SDS011;5202;49.138;10.090;2022-07-23T08:20:49;7.03;;;5.80;;
10313;SDS011;5202;49.138;10.090;2022-07-23T08:23:17;6.35;;;5.30;;
10313;SDS011;5202;49.138;10.090;2022-07-23T08:25:47;8.75;;;5.35;;
10313;SDS011;5202;49.138;10.090;2022-07-23T08:28:16;7.25;;;5.22;;
10313;SDS011;5202;49.138;10.090;2022-07-23T08:30:44;7.88;;;5.68;;
10313;SDS011;5202;49.138;10.090;2022-07-23T08:33:13;7.68;;;5.57;;
10313;SDS011;5202;49.138;10.090;2022-07-23T08:35:58;6.15;;;5.10;;
10313;SDS011;5202;49.138;10.090;2022-07-23T08:38:34;6.72;;;5.07;;
10313;SDS011;5202;49.138;10.090;2022-07-23T08:41:04;7.18;;;5.18;;
10313;SDS011;5202;49.138;10.090;2022-07-23T08:43:35;6.60;;;4.50;;
10313;SDS011;5202;49.138;10.090;2022-07-23T08:46:04;7.28;;;5.07;;
10313;SDS011;5202;49.138;10.090;2022-07-23T08:48:33;9.18;;;5.45;;
10313;SDS011;5202;49.138;10.090;2022-07-23T08:51:05;5.70;;;5.00;;
10313;SDS011;5202;49.138;10.090;2022-07-23T08:53:34;6.85;;;5.63;;
10313;SDS011;5202;49.138;10.090;2022-07-23T08:56:05;8.43;;;5.40;;
10313;SDS011;5202;49.138;10.090;2022-07-23T08:58:35;5.43;;;4.70;;
10313;SDS011;5202;49.138;10.090;2022-07-23T09:01:04;8.10;;;5.28;;
10313;SDS011;5202;49.138;10.090;2022-07-23T09:03:32;5.63;;;4.93;;
10313;SDS011;5202;49.138;10.090;2022-07-23T09:06:04;5.60;;;5.03;;
10313;SDS011;5202;49.138;10.090;2022-07-23T09:08:34;7.10;;;4.32;;
10313;SDS011;5202;49.138;10.090;2022-07-23T09:11:07;5.88;;;4.45;;
10313;SDS011;5202;49.138;10.090;2022-07-23T09:13:37;4.93;;;4.47;;
10313;SDS011;5202;49.138;10.090;2022-07-23T09:16:10;5.05;;;4.43;;
10313;SDS011;5202;49.138;10.090;2022-07-23T09:18:41;4.93;;;4.07;;
10313;SDS011;5202;49.138;10.090;2022-07-23T09:21:16;5.88;;;5.10;;
10313;SDS011;5202;49.138;10.090;2022-07-23T09:23:50;5.15;;;4.65;;
10313;SDS011;5202;49.138;10.090;2022-07-23T09:26:31;5.65;;;4.97;;
10313;SDS011;5202;49.138;10.090;2022-07-23T09:29:04;6.55;;;5.28;;
10313;SDS011;5202;49.138;10.090;2022-07-23T09:31:42;6.03;;;5.20;;
10313;SDS011;5202;49.138;10.090;2022-07-23T09:34:16;7.07;;;5.30;;
10313;SDS011;5202;49.138;10.090;2022-07-23T09:36:50;7.45;;;5.22;;
10313;SDS011;5202;49.138;10.090;2022-07-23T09:39:27;6.07;;;5.07;;
10313;SDS011;5202;49.138;10.090;2022-07-23T09:42:11;6.68;;;5.55;;
10313;SDS011;5202;49.138;10.090;2022-07-23T09:44:43;9.13;;;5.50;;
10313;SDS011;5202;49.138;10.090;2022-07-23T09:47:14;5.72;;;4.85;;
10313;SDS011;5202;49.138;10.090;2022-07-23T09:49:56;7.35;;;4.88;;
10313;SDS011;5202;49.138;10.090;2022-07-23T09:52:27;4.88;;;4.47;;
10313;SDS011;5202;49.138;10.090;2022-07-23T09:55:02;5.85;;;5.03;;
10313;SDS011;5202;49.138;10.090;2022-07-23T09:57:33;6.60;;;5.07;;
10313;SDS011;5202;49.138;10.090;2022-07-23T10:00:03;6.55;;;4.93;;
10313;SDS011;5202;49.138;10.090;2022-07-23T10:02:34;5.45;;;4.70;;
10313;SDS011;5202;49.138;10.090;2022-07-23T10:05:32;5.57;;;4.32;;
10313;SDS011;5202;49.138;10.090;2022-07-23T10:08:21;5.72;;;4.38;;
10313;SDS011;5202;49.138;10.090;2022-07-23T10:11:13;5.50;;;4.35;;
10313;SDS011;5202;49.138;10.090;2022-07-23T10:14:01;4.70;;;4.20;;
10313;SDS011;5202;49.138;10.090;2022-07-23T10:16:44;4.53;;;3.83;;
10313;SDS011;5202;49.138;10.090;2022-07-23T10:19:12;4.47;;;4.07;;
10313;SDS011;5202;49.138;10.090;2022-07-23T10:21:42;4.47;;;4.07;;
10313;SDS011;5202;49.138;10.090;2022-07-23T10:24:16;5.30;;;4.43;;
10313;SDS011;5202;49.138;10.090;2022-07-23T10:26:58;7.65;;;4.75;;
10313;SDS011;5202;49.138;10.090;2022-07-23T10:29:42;5.28;;;4.78;;
10313;SDS011;5202;49.138;10.090;2022-07-23T10:32:22;6.68;;;4.63;;
10313;SDS011;5202;49.138;10.090;2022-07-23T10:35:03;4.97;;;4.40;;
10313;SDS011;5202;49.138;10.090;2022-07-23T10:37:41;4.70;;;4.20;;
10313;SDS011;5202;49.138;10.090;2022-07-23T10:40:13;4.80;;;4.30;;
10313;SDS011;5202;49.138;10.090;2022-07-23T10:42:43;4.82;;;4.30;;
10313;SDS011;5202;49.138;10.090;2022-07-23T10:45:28;5.07;;;4.57;;
10313;SDS011;5202;49.138;10.090;2022-07-23T10:48:11;4.95;;;4.28;;
10313;SDS011;5202;49.138;10.090;2022-07-23T10:50:42;4.82;;;4.30;;
10313;SDS011;5202;49.138;10.090;2022-07-23T10:53:13;5.00;;;3.88;;
10313;SDS011;5202;49.138;10.090;2022-07-23T10:55:48;6.53;;;4.10;;
10313;SDS011;5202;49.138;10.090;2022-07-23T10:58:23;6.32;;;4.20;;
10313;SDS011;5202;49.138;10.090;2022-07-23T11:01:34;4.57;;;3.83;;
10313;SDS011;5202;49.138;10.090;2022-07-23T11:04:04;4.07;;;3.67;;
10313;SDS011;5202;49.138;10.090;2022-07-23T11:09:43;5.05;;;4.38;;
10313;SDS011;5202;49.138;10.090;2022-07-23T11:15:05;5.28;;;3.92;;
10313;SDS011;5202;49.138;10.090;2022-07-23T11:17:37;4.55;;;4.10;;
10313;SDS011;5202;49.138;10.090;2022-07-23T11:20:27;4.65;;;3.92;;
10313;SDS011;5202;49.138;10.090;2022-07-23T11:22:56;4.68;;;4.00;;
10313;SDS011;5202;49.138;10.090;2022-07-23T11:25:31;4.60;;;3.33;;
10313;SDS011;5202;49.138;10.090;2022-07-23T11:28:11;5.43;;;4.10;;
10313;SDS011;5202;49.138;10.090;2022-07-23T11:30:43;4.65;;;4.22;;
10313;SDS011;5202;49.138;10.090;2022-07-23T11:33:18;4.55;;;3.38;;
10313;SDS011;5202;49.138;10.090;2022-07-23T11:35:49;3.83;;;3.40;;
10313;SDS011;5202;49.138;10.090;2022-07-23T11:38:30;4.15;;;3.70;;
10313;SDS011;5202;49.138;10.090;2022-07-23T11:41:00;4.22;;;3.83;;
10313;SDS011;5202;49.138;10.090;2022-07-23T11:43:28;4.60;;;4.00;;
10313;SDS011;5202;49.138;10.090;2022-07-23T11:45:57;5.82;;;4.32;;
10313;SDS011;5202;49.138;10.090;2022-07-23T11:48:29;4.95;;;4.43;;
10313;SDS011;5202;49.138;10.090;2022-07-23T11:51:06;4.78;;;4.28;;
10313;SDS011;5202;49.138;10.090;2022-07-23T11:53:34;3.75;;;3.45;;
10313;SDS011;5202;49.138;10.090;2022-07-23T11:56:03;7.80;;;4.40;;
10313;SDS011;5202;49.138;10.090;2022-07-23T11:58:33;5.07;;;4.03;;
10313;SDS011;5202;49.138;10.090;2022-07-23T12:01:02;4.40;;;4.00;;
10313;SDS011;5202;49.138;10.090;2022-07-23T12:03:32;4.75;;;3.92;;
10313;SDS011;5202;49.138;10.090;2022-07-23T12:06:03;4.60;;;3.90;;
10313;SDS011;5202;49.138;10.090;2022-07-23T12:08:32;4.00;;;3.70;;
10313;SDS011;5202;49.138;10.090;2022-07-23T12:11:00;5.93;;;3.63;;
10313;SDS011;5202;49.138;10.090;2022-07-23T12:13:29;4.78;;;3.90;;
10313;SDS011;5202;49.138;10.090;2022-07-23T12:15:57;4.13;;;3.72;;
10313;SDS011;5202;49.138;10.090;2022-07-23T12:18:26;3.85;;;3.45;;
10313;SDS011;5202;49.138;10.090;2022-07-23T12:20:57;5.35;;;3.92;;
10313;SDS011;5202;49.138;10.090;2022-07-23T12:23:30;4.82;;;4.40;;
10313;SDS011;5202;49.138;10.090;2022-07-23T12:26:00;4.05;;;3.65;;
10313;SDS011;5202;49.138;10.090;2022-07-23T12:28:33;3.53;;;3.22;;
10313;SDS011;5202;49.138;10.090;2022-07-23T12:31:04;3.80;;;3.40;;
10313;SDS011;5202;49.138;10.090;2022-07-23T12:33:33;4.50;;;3.58;;
10313;SDS011;5202;49.138;10.090;2022-07-23T12:36:10;4.63;;;4.10;;
10313;SDS011;5202;49.138;10.090;2022-07-23T12:38:39;4.50;;;3.80;;
10313;SDS011;5202;49.138;10.090;2022-07-23T12:41:11;5.97;;;4.18;;
10313;SDS011;5202;49.138;10.090;2022-07-23T12:43:40;4.70;;;4.28;;
10313;SDS011;5202;49.138;10.090;2022-07-23T12:46:11;4.72;;;4.32;;
10313;SDS011;5202;49.138;10.090;2022-07-23T12:48:49;4.18;;;3.80;;
10313;SDS011;5202;49.138;10.090;2022-07-23T12:51:21;5.20;;;4.70;;
10313;SDS011;5202;49.138;10.090;2022-07-23T12:53:52;4.88;;;4.38;;
10313;SDS011;5202;49.138;10.090;2022-07-23T12:56:26;4.68;;;4.05;;
10313;SDS011;5202;49.138;10.090;2022-07-23T12:58:58;5.72;;;4.30;;
10313;SDS011;5202;49.138;10.090;2022-07-23T13:01:34;4.53;;;4.07;;
10313;SDS011;5202;49.138;10.090;2022-07-23T13:04:04;4.82;;;4.38;;
10313;SDS011;5202;49.138;10.090;2022-07-23T13:06:41;4.93;;;4.13;;
10313;SDS011;5202;49.138;10.090;2022-07-23T13:09:11;5.22;;;4.45;;
10313;SDS011;5202;49.138;10.090;2022-07-23T13:11:42;7.63;;;4.30;;
10313;SDS011;5202;49.138;10.090;2022-07-23T13:14:13;4.47;;;4.07;;
10313;SDS011;5202;49.138;10.090;2022-07-23T13:16:43;4.82;;;4.32;;
10313;SDS011;5202;49.138;10.090;2022-07-23T13:19:14;4.38;;;3.97;;
10313;SDS011;5202;49.138;10.090;2022-07-23T13:21:45;5.38;;;4.18;;
10313;SDS011;5202;49.138;10.090;2022-07-23T13:24:14;6.45;;;4.80;;
10313;SDS011;5202;49.138;10.090;2022-07-23T13:26:43;4.93;;;4.43;;
10313;SDS011;5202;49.138;10.090;2022-07-23T13:29:13;4.68;;;4.07;;
10313;SDS011;5202;49.138;10.090;2022-07-23T13:31:43;4.80;;;4.30;;
10313;SDS011;5202;49.138;10.090;2022-07-23T13:34:12;4.40;;;3.90;;
10313;SDS011;5202;49.138;10.090;2022-07-23T13:36:40;6.65;;;4.70;;
10313;SDS011;5202;49.138;10.090;2022-07-23T13:39:11;5.50;;;5.00;;
10313;SDS011;5202;49.138;10.090;2022-07-23T13:41:40;4.72;;;3.83;;
10313;SDS011;5202;49.138;10.090;2022-07-23T13:44:16;6.85;;;5.47;;
10313;SDS011;5202;49.138;10.090;2022-07-23T13:46:48;5.13;;;4.65;;
10313;SDS011;5202;49.138;10.090;2022-07-23T13:49:17;5.60;;;5.00;;
10313;SDS011;5202;49.138;10.090;2022-07-23T13:51:47;5.72;;;5.13;;
10313;SDS011;5202;49.138;10.090;2022-07-23T13:54:17;5.95;;;5.35;;
10313;SDS011;5202;49.138;10.090;2022-07-23T13:56:47;5.78;;;5.10;;
10313;SDS011;5202;49.138;10.090;2022-07-23T13:59:15;7.28;;;5.53;;
10313;SDS011;5202;49.138;10.090;2022-07-23T14:01:46;7.35;;;5.55;;
10313;SDS011;5202;49.138;10.090;2022-07-23T14:04:34;5.47;;;4.97;;
10313;SDS011;5202;49.138;10.090;2022-07-23T14:07:03;6.10;;;4.70;;
10313;SDS011;5202;49.138;10.090;2022-07-23T14:09:33;8.95;;;5.68;;
10313;SDS011;5202;49.138;10.090;2022-07-23T14:12:01;6.45;;;5.60;;
10313;SDS011;5202;49.138;10.090;2022-07-23T14:14:30;6.15;;;5.55;;
10313;SDS011;5202;49.138;10.090;2022-07-23T14:17:02;6.07;;;5.32;;
10313;SDS011;5202;49.138;10.090;2022-07-23T14:19:32;6.10;;;5.50;;
10313;SDS011;5202;49.138;10.090;2022-07-23T14:22:01;9.23;;;5.43;;
10313;SDS011;5202;49.138;10.090;2022-07-23T14:24:32;7.70;;;5.28;;
10313;SDS011;5202;49.138;10.090;2022-07-23T14:27:02;6.90;;;5.50;;
10313;SDS011;5202;49.138;10.090;2022-07-23T14:29:37;6.25;;;5.65;;
10313;SDS011;5202;49.138;10.090;2022-07-23T14:32:06;7.43;;;5.53;;
10313;SDS011;5202;49.138;10.090;2022-07-23T14:34:34;6.93;;;4.95;;
10313;SDS011;5202;49.138;10.090;2022-07-23T14:37:03;8.57;;;5.18;;
10313;SDS011;5202;49.138;10.090;2022-07-23T14:39:33;5.13;;;4.65;;
10313;SDS011;5202;49.138;10.090;2022-07-23T14:42:03;9.82;;;5.50;;
10313;SDS011;5202;49.138;10.090;2022-07-23T14:44:33;5.07;;;4.57;;
10313;SDS011;5202;49.138;10.090;2022-07-23T14:47:02;5.22;;;4.72;;
10313;SDS011;5202;49.138;10.090;2022-07-23T14:49:35;6.00;;;5.40;;
10313;SDS011;5202;49.138;10.090;2022-07-23T14:52:04;5.93;;;5.40;;
10313;SDS011;5202;49.138;10.090;2022-07-23T14:54:35;7.30;;;5.25;;
10313;SDS011;5202;49.138;10.090;2022-07-23T14:57:03;5.82;;;5.03;;
10313;SDS011;5202;49.138;10.090;2022-07-23T14:59:36;6.28;;;4.60;;
10313;SDS011;5202;49.138;10.090;2022-07-23T15:02:04;5.45;;;4.95;;
10313;SDS011;5202;49.138;10.090;2022-07-23T15:04:33;4.95;;;4.45;;
10313;SDS011;5202;49.138;10.090;2022-07-23T15:07:04;5.63;;;4.65;;
10313;SDS011;5202;49.138;10.090;2022-07-23T15:09:32;6.10;;;4.55;;
10313;SDS011;5202;49.138;10.090;2022-07-23T15:12:02;4.90;;;4.35;;
10313;SDS011;5202;49.138;10.090;2022-07-23T15:14:35;5.43;;;4.60;;
10313;SDS011;5202;49.138;10.090;2022-07-23T15:17:04;6.53;;;5.35;;